createdAt,value
2018-07-08T00:00:56.526Z,99.04
2018-07-08T00:02:05.173Z,99.23
2018-07-08T00:03:14.083Z,99.9
2018-07-08T00:04:22.735Z,98.99
2018-07-08T00:05:31.377Z,99.85
2018-07-08T00:06:40.018Z,99.85
2018-07-08T00:07:48.660Z,99.85
2018-07-08T00:08:57.303Z,99.76
2018-07-08T00:10:05.960Z,99.99
2018-07-08T00:11:14.599Z,99.57
2018-07-08T00:12:23.250Z,99.66
2018-07-08T00:13:32.149Z,99.76
2018-07-08T00:14:40.805Z,99.99
2018-07-08T00:15:49.445Z,99.99
2018-07-08T00:16:58.089Z,99.95
2018-07-08T00:18:06.728Z,99.99
2018-07-08T00:19:15.382Z,99.99
2018-07-08T00:20:24.024Z,99.99
2018-07-08T00:21:32.672Z,99.99
2018-07-08T00:22:41.309Z,99.99
2018-07-08T00:23:49.958Z,99.99
2018-07-08T00:24:58.607Z,99.99
2018-07-08T00:26:07.521Z,99.99
2018-07-08T00:27:16.169Z,99.99
2018-07-08T00:28:24.804Z,99.99
2018-07-08T00:29:33.456Z,99.99
2018-07-08T00:30:42.101Z,99.99
2018-07-08T00:31:51.019Z,99.99
2018-07-08T00:32:59.663Z,99.99
2018-07-08T00:34:08.304Z,99.99
2018-07-08T00:35:17.745Z,99.99
2018-07-08T00:36:26.387Z,99.99
2018-07-08T00:37:35.040Z,99.99
2018-07-08T00:38:43.682Z,99.99
2018-07-08T00:39:52.375Z,99.99
2018-07-08T00:41:01.411Z,99.99
2018-07-08T00:42:10.059Z,99.99
2018-07-08T00:43:18.707Z,99.99
2018-07-08T00:44:27.354Z,99.99
2018-07-08T00:45:35.999Z,99.99
2018-07-08T00:46:44.634Z,99.99
2018-07-08T00:47:53.282Z,99.99
2018-07-08T00:49:01.922Z,99.99
2018-07-08T00:50:10.568Z,99.99
2018-07-08T00:51:19.202Z,99.99
2018-07-08T00:52:27.851Z,99.99
2018-07-08T00:53:36.493Z,99.99
2018-07-08T00:54:45.413Z,99.99
2018-07-08T00:55:54.313Z,99.99
2018-07-08T00:57:02.957Z,99.99
2018-07-08T00:58:11.603Z,99.99
2018-07-08T00:59:20.513Z,99.99
2018-07-08T01:00:29.157Z,99.99
2018-07-08T01:01:38.066Z,99.99
2018-07-08T01:02:46.703Z,99.99
2018-07-08T01:03:55.343Z,99.99
2018-07-08T01:05:03.996Z,99.99
2018-07-08T01:06:12.636Z,99.99
2018-07-08T01:07:21.285Z,99.99
2018-07-08T01:08:29.920Z,99.99
2018-07-08T01:09:38.575Z,99.99
2018-07-08T01:10:47.213Z,99.99
2018-07-08T01:11:55.860Z,99.99
2018-07-08T01:13:04.496Z,99.99
2018-07-08T01:14:13.413Z,99.99
2018-07-08T01:15:22.059Z,99.99
2018-07-08T01:16:30.703Z,99.99
2018-07-08T01:17:39.337Z,99.99
2018-07-08T01:18:47.984Z,99.99
2018-07-08T01:19:56.635Z,99.99
2018-07-08T01:21:05.802Z,99.99
2018-07-08T01:22:14.724Z,99.99
2018-07-08T01:23:23.359Z,99.99
2018-07-08T01:24:32.005Z,99.99
2018-07-08T01:25:40.644Z,99.99
2018-07-08T01:26:49.296Z,99.99
2018-07-08T01:27:58.455Z,99.99
2018-07-08T01:29:07.369Z,99.99
2018-07-08T01:30:16.009Z,99.99
2018-07-08T01:31:24.662Z,99.99
2018-07-08T01:32:33.300Z,99.99
2018-07-08T01:33:41.947Z,99.99
2018-07-08T01:34:50.855Z,99.99
2018-07-08T01:35:59.502Z,99.99
2018-07-08T01:37:08.145Z,99.99
2018-07-08T01:38:16.788Z,99.99
2018-07-08T01:39:25.453Z,99.99
2018-07-08T01:40:34.067Z,99.99
2018-07-08T01:41:42.974Z,99.99
2018-07-08T01:42:51.619Z,99.99
2018-07-08T01:44:00.269Z,99.99
2018-07-08T01:45:09.164Z,99.99
2018-07-08T01:46:17.811Z,99.99
2018-07-08T01:47:26.454Z,99.99
2018-07-08T01:48:35.099Z,99.99
2018-07-08T01:49:44.007Z,99.99
2018-07-08T01:50:52.915Z,99.99
2018-07-08T01:52:01.555Z,99.99
2018-07-08T01:53:10.199Z,99.99
2018-07-08T01:54:18.839Z,99.99
2018-07-08T01:55:27.487Z,99.99
2018-07-08T01:56:36.395Z,99.99
2018-07-08T01:57:45.046Z,99.99
2018-07-08T01:58:53.950Z,99.99
2018-07-08T02:00:02.587Z,99.99
2018-07-08T02:01:11.229Z,99.99
2018-07-08T02:02:19.870Z,99.99
2018-07-08T02:03:28.522Z,99.99
2018-07-08T02:04:37.160Z,99.99
2018-07-08T02:05:45.804Z,99.99
2018-07-08T02:06:54.464Z,99.99
2018-07-08T02:08:03.403Z,99.99
2018-07-08T02:09:12.045Z,99.99
2018-07-08T02:10:20.697Z,99.99
2018-07-08T02:11:29.338Z,99.99
2018-07-08T02:12:37.985Z,99.99
2018-07-08T02:13:46.627Z,99.99
2018-07-08T02:14:55.270Z,99.99
2018-07-08T02:16:04.186Z,99.99
2018-07-08T02:17:13.092Z,99.99
2018-07-08T02:18:21.740Z,99.99
2018-07-08T02:19:30.384Z,99.99
2018-07-08T02:20:39.024Z,99.99
2018-07-08T02:21:47.666Z,99.99
2018-07-08T02:22:56.315Z,99.99
2018-07-08T02:24:04.961Z,99.99
2018-07-08T02:25:13.604Z,99.99
2018-07-08T02:26:22.242Z,99.99
2018-07-08T02:27:30.890Z,99.99
2018-07-08T02:28:39.531Z,99.99
2018-07-08T02:29:48.174Z,99.99
2018-07-08T02:30:56.812Z,99.99
2018-07-08T02:32:05.467Z,99.99
2018-07-08T02:33:14.113Z,99.99
2018-07-08T02:34:22.762Z,99.99
2018-07-08T02:35:31.939Z,99.99
2018-07-08T02:36:40.577Z,99.99
2018-07-08T02:37:49.754Z,99.99
2018-07-08T02:38:58.400Z,99.99
2018-07-08T02:40:07.315Z,99.99
2018-07-08T02:41:15.956Z,99.99
2018-07-08T02:42:24.601Z,99.99
2018-07-08T02:43:33.242Z,99.99
2018-07-08T02:44:41.897Z,99.99
2018-07-08T02:45:50.539Z,99.99
2018-07-08T02:46:59.189Z,99.99
2018-07-08T02:48:07.836Z,99.99
2018-07-08T02:49:16.484Z,99.99
2018-07-08T02:50:25.125Z,99.99
2018-07-08T02:51:33.779Z,99.99
2018-07-08T02:52:42.421Z,99.99
2018-07-08T02:53:51.059Z,99.99
2018-07-08T02:54:59.711Z,99.99
2018-07-08T02:56:08.373Z,99.99
2018-07-08T02:57:17.005Z,99.99
2018-07-08T02:58:25.913Z,99.99
2018-07-08T02:59:34.830Z,99.99
2018-07-08T03:00:43.475Z,99.99
2018-07-08T03:01:52.117Z,99.99
2018-07-08T03:03:00.765Z,99.99
2018-07-08T03:04:09.677Z,99.99
2018-07-08T03:05:18.321Z,99.99
2018-07-08T03:06:27.507Z,99.99
2018-07-08T03:07:36.145Z,99.99
2018-07-08T03:08:44.786Z,99.99
2018-07-08T03:09:53.963Z,99.99
2018-07-08T03:11:02.611Z,99.99
2018-07-08T03:12:11.260Z,99.99
2018-07-08T03:13:19.906Z,99.99
2018-07-08T03:14:28.811Z,99.99
2018-07-08T03:15:37.729Z,99.99
2018-07-08T03:16:46.378Z,99.99
2018-07-08T03:17:55.339Z,99.99
2018-07-08T03:19:03.988Z,99.99
2018-07-08T03:20:12.631Z,99.99
2018-07-08T03:21:21.279Z,99.99
2018-07-08T03:22:30.182Z,99.99
2018-07-08T03:23:39.364Z,99.99
2018-07-08T03:24:48.024Z,99.99
2018-07-08T03:25:57.201Z,99.99
2018-07-08T03:27:05.840Z,99.99
2018-07-08T03:28:14.749Z,99.99
2018-07-08T03:29:23.386Z,99.99
2018-07-08T03:30:32.033Z,99.99
2018-07-08T03:31:41.230Z,99.99
2018-07-08T03:32:49.874Z,99.99
2018-07-08T03:33:58.783Z,99.99
2018-07-08T03:35:07.420Z,99.99
2018-07-08T03:36:16.073Z,99.99
2018-07-08T03:37:24.711Z,99.99
2018-07-08T03:38:33.359Z,99.99
2018-07-08T03:39:41.996Z,99.99
2018-07-08T03:40:50.647Z,99.99
2018-07-08T03:41:59.557Z,99.99
2018-07-08T03:43:08.474Z,99.99
2018-07-08T03:44:17.369Z,99.99
2018-07-08T03:45:26.014Z,99.99
2018-07-08T03:46:34.666Z,99.99
2018-07-08T03:47:43.310Z,99.99
2018-07-08T03:48:52.218Z,99.99
2018-07-08T03:50:00.853Z,99.99
2018-07-08T03:51:09.499Z,99.99
2018-07-08T03:52:18.135Z,99.99
2018-07-08T03:53:26.786Z,99.99
2018-07-08T03:54:35.421Z,99.99
2018-07-08T03:55:44.072Z,99.99
2018-07-08T03:56:52.712Z,99.99
2018-07-08T03:58:01.363Z,99.99
2018-07-08T03:59:09.998Z,99.99
2018-07-08T04:00:18.642Z,99.99
2018-07-08T04:01:27.281Z,99.99
2018-07-08T04:02:35.933Z,99.99
2018-07-08T04:03:44.572Z,99.99
2018-07-08T04:04:53.213Z,99.99
2018-07-08T04:06:01.853Z,99.99
2018-07-08T04:07:10.494Z,99.99
2018-07-08T04:08:19.151Z,99.99
2018-07-08T04:09:28.047Z,99.99
2018-07-08T04:10:36.693Z,99.99
2018-07-08T04:11:45.327Z,99.99
2018-07-08T04:12:53.979Z,99.99
2018-07-08T04:14:02.617Z,99.99
2018-07-08T04:15:11.326Z,99.99
2018-07-08T04:16:19.899Z,99.99
2018-07-08T04:17:28.549Z,99.99
2018-07-08T04:18:37.190Z,99.99
2018-07-08T04:19:45.837Z,99.99
2018-07-08T04:20:54.727Z,99.99
2018-07-08T04:22:03.374Z,99.99
2018-07-08T04:23:12.026Z,99.99
2018-07-08T04:24:20.668Z,99.99
2018-07-08T04:25:29.313Z,99.99
2018-07-08T04:26:37.943Z,99.99
2018-07-08T04:27:46.587Z,99.99
2018-07-08T04:28:55.238Z,99.99
2018-07-08T04:30:03.872Z,99.99
2018-07-08T04:31:12.528Z,99.99
2018-07-08T04:32:21.168Z,99.99
2018-07-08T04:33:29.815Z,99.99
2018-07-08T04:34:38.450Z,99.99
2018-07-08T04:35:47.365Z,99.99
2018-07-08T04:36:56.005Z,99.99
2018-07-08T04:38:04.650Z,99.99
2018-07-08T04:39:13.562Z,99.99
2018-07-08T04:40:22.206Z,99.99
2018-07-08T04:41:30.856Z,99.99
2018-07-08T04:42:39.501Z,99.99
2018-07-08T04:43:48.143Z,99.99
2018-07-08T04:44:57.040Z,99.99
2018-07-08T04:46:05.688Z,99.99
2018-07-08T04:47:14.324Z,99.99
2018-07-08T04:48:22.979Z,99.99
2018-07-08T04:49:31.879Z,99.99
2018-07-08T04:50:40.526Z,99.99
2018-07-08T04:51:49.164Z,99.99
2018-07-08T04:52:58.081Z,99.99
2018-07-08T04:54:06.717Z,99.99
2018-07-08T04:55:15.360Z,99.99
2018-07-08T04:56:24.000Z,99.99
2018-07-08T04:57:32.651Z,99.99
2018-07-08T04:58:41.291Z,99.99
2018-07-08T04:59:49.928Z,99.99
2018-07-08T05:00:58.575Z,99.99
2018-07-08T05:02:07.212Z,99.99
2018-07-08T05:03:15.861Z,99.99
2018-07-08T05:04:24.500Z,99.99
2018-07-08T05:05:33.151Z,99.99
2018-07-08T05:06:41.782Z,99.99
2018-07-08T05:07:50.437Z,99.99
2018-07-08T05:08:59.343Z,99.99
2018-07-08T05:10:07.989Z,99.99
2018-07-08T05:11:16.622Z,99.99
2018-07-08T05:12:25.296Z,99.99
2018-07-08T05:13:34.200Z,99.99
2018-07-08T05:14:42.850Z,99.99
2018-07-08T05:15:51.483Z,99.99
2018-07-08T05:17:00.128Z,99.99
2018-07-08T05:18:08.774Z,99.99
2018-07-08T05:19:17.419Z,99.99
2018-07-08T05:20:26.106Z,99.99
2018-07-08T05:21:34.703Z,99.99
2018-07-08T05:22:43.611Z,99.99
2018-07-08T05:23:52.251Z,99.99
2018-07-08T05:25:00.903Z,99.99
2018-07-08T05:26:09.807Z,99.99
2018-07-08T05:27:18.452Z,99.99
2018-07-08T05:28:27.092Z,99.99
2018-07-08T05:29:35.743Z,99.99
2018-07-08T05:30:44.383Z,99.99
2018-07-08T05:31:53.037Z,99.99
2018-07-08T05:33:01.946Z,99.99
2018-07-08T05:34:10.593Z,99.99
2018-07-08T05:35:19.234Z,99.99
2018-07-08T05:36:27.877Z,99.99
2018-07-08T05:37:36.524Z,99.99
2018-07-08T05:38:45.164Z,99.99
2018-07-08T05:39:53.813Z,99.99
2018-07-08T05:41:02.718Z,99.99
2018-07-08T05:42:11.363Z,99.99
2018-07-08T05:43:20.006Z,99.99
2018-07-08T05:44:28.913Z,99.99
2018-07-08T05:45:37.559Z,99.99
2018-07-08T05:46:46.202Z,99.99
2018-07-08T05:47:54.837Z,99.99
2018-07-08T05:49:03.484Z,99.99
2018-07-08T05:50:12.163Z,99.99
2018-07-08T05:51:21.124Z,99.99
2018-07-08T05:52:29.766Z,99.99
2018-07-08T05:53:38.412Z,99.99
2018-07-08T05:54:47.056Z,99.99
2018-07-08T05:55:55.706Z,99.99
2018-07-08T05:57:04.351Z,99.99
2018-07-08T05:58:12.992Z,99.99
2018-07-08T05:59:21.900Z,99.99
2018-07-08T06:00:30.544Z,99.99
2018-07-08T06:01:39.190Z,99.99
2018-07-08T06:02:47.832Z,99.99
2018-07-08T06:03:56.536Z,99.99
2018-07-08T06:05:05.121Z,99.99
2018-07-08T06:06:13.770Z,99.99
2018-07-08T06:07:22.410Z,99.99
2018-07-08T06:08:31.056Z,99.99
2018-07-08T06:09:39.697Z,99.99
2018-07-08T06:10:48.349Z,99.99
2018-07-08T06:11:57.253Z,99.99
2018-07-08T06:13:05.900Z,99.71
2018-07-08T06:14:14.540Z,99.96
2018-07-08T06:15:23.207Z,99.99
2018-07-08T06:16:31.837Z,99.33
2018-07-08T06:17:40.482Z,98.61
2018-07-08T06:18:49.129Z,99.19
2018-07-08T06:19:57.769Z,99
2018-07-08T06:21:06.423Z,99.38
2018-07-08T06:22:15.071Z,99
2018-07-08T06:23:23.978Z,98.43
2018-07-08T06:24:32.880Z,98.33
2018-07-08T06:25:41.534Z,98.14
2018-07-08T06:26:50.178Z,97.75
2018-07-08T06:27:58.825Z,98.04
2018-07-08T06:29:07.461Z,97.9
2018-07-08T06:30:16.384Z,97.13
2018-07-08T06:31:25.034Z,96.8
2018-07-08T06:32:33.681Z,97.23
2018-07-08T06:33:42.599Z,97.23
2018-07-08T06:34:51.239Z,96.47
2018-07-08T06:35:59.886Z,96.75
2018-07-08T06:37:08.532Z,97.23
2018-07-08T06:38:17.187Z,96.56
2018-07-08T06:39:25.827Z,95.89
2018-07-08T06:40:34.744Z,95.41
2018-07-08T06:41:43.386Z,95.31
2018-07-08T06:42:52.355Z,94.45
2018-07-08T06:44:00.992Z,94.36
2018-07-08T06:45:09.639Z,94.45
2018-07-08T06:46:18.282Z,94.02
2018-07-08T06:47:26.939Z,93.4
2018-07-08T06:48:35.580Z,93.74
2018-07-08T06:49:44.222Z,93.93
2018-07-08T06:50:52.867Z,93.83
2018-07-08T06:52:01.557Z,93.93
2018-07-08T06:53:10.170Z,93.35
2018-07-08T06:54:19.074Z,92.49
2018-07-08T06:55:27.728Z,92.87
2018-07-08T06:56:36.366Z,92.92
2018-07-08T06:57:45.047Z,92.58
2018-07-08T06:58:53.663Z,92.63
2018-07-08T07:00:02.315Z,91.86
2018-07-08T07:01:10.954Z,91.67
2018-07-08T07:02:19.608Z,91.19
2018-07-08T07:03:28.254Z,91.67
2018-07-08T07:04:37.163Z,92.15
2018-07-08T07:05:46.069Z,92.15
2018-07-08T07:06:54.718Z,91.82
2018-07-08T07:08:03.371Z,91.58
2018-07-08T07:09:12.025Z,91.29
2018-07-08T07:10:20.675Z,91.19
2018-07-08T07:11:29.315Z,90.91
2018-07-08T07:12:37.964Z,91.1
2018-07-08T07:13:46.605Z,90.14
2018-07-08T07:14:55.261Z,90.14
2018-07-08T07:16:04.421Z,90.05
2018-07-08T07:17:13.072Z,88.9
2018-07-08T07:18:21.712Z,88.7
2018-07-08T07:19:30.366Z,89.28
2018-07-08T07:20:39.006Z,89.28
2018-07-08T07:21:47.920Z,88.46
2018-07-08T07:22:56.629Z,88.56
2018-07-08T07:24:05.211Z,88.46
2018-07-08T07:25:13.854Z,87.88
2018-07-08T07:26:22.503Z,87.41
2018-07-08T07:27:31.148Z,86.83
2018-07-08T07:28:39.806Z,87.31
2018-07-08T07:29:48.443Z,86.07
2018-07-08T07:30:57.099Z,85.78
2018-07-08T07:32:05.739Z,86.25
2018-07-08T07:33:14.379Z,85.68
2018-07-08T07:34:23.029Z,86.07
2018-07-08T07:35:31.676Z,86.54
2018-07-08T07:36:40.848Z,86.97
2018-07-08T07:37:49.486Z,86.3
2018-07-08T07:38:58.137Z,85.92
2018-07-08T07:40:06.796Z,85.63
2018-07-08T07:41:15.445Z,85.25
2018-07-08T07:42:24.085Z,84.67
2018-07-08T07:43:32.738Z,84.86
2018-07-08T07:44:41.385Z,85.15
2018-07-08T07:45:50.035Z,84.58
2018-07-08T07:46:58.689Z,83.91
2018-07-08T07:48:07.329Z,84.19
2018-07-08T07:49:15.975Z,82.46
2018-07-08T07:50:24.622Z,81.51
2018-07-08T07:51:33.273Z,80.93
2018-07-08T07:52:42.178Z,79.97
2018-07-08T07:53:51.362Z,80.4
2018-07-08T07:55:00.012Z,80.26
2018-07-08T07:56:08.660Z,80.78
2018-07-08T07:57:17.306Z,80.68
2018-07-08T07:58:25.953Z,81.45
2018-07-08T07:59:34.597Z,80.2
2018-07-08T08:00:43.253Z,80.49
2018-07-08T08:01:51.900Z,80.2
2018-07-08T08:03:00.813Z,81.26
2018-07-08T08:04:09.722Z,81.16
2018-07-08T08:05:18.366Z,79.63
2018-07-08T08:06:27.018Z,79.63
2018-07-08T08:07:35.665Z,79.82
2018-07-08T08:08:44.313Z,80.01
2018-07-08T08:09:52.956Z,80.01
2018-07-08T08:11:01.889Z,79.86
2018-07-08T08:12:10.532Z,80.58
2018-07-08T08:13:19.439Z,80.43
2018-07-08T08:14:28.083Z,80.24
2018-07-08T08:15:36.998Z,78.9
2018-07-08T08:16:45.643Z,79.19
2018-07-08T08:17:54.292Z,78.13
2018-07-08T08:19:03.200Z,78.32
2018-07-08T08:20:12.107Z,77.08
2018-07-08T08:21:20.757Z,77.46
2018-07-08T08:22:29.401Z,75.82
2018-07-08T08:23:38.048Z,76.31
2018-07-08T08:24:46.699Z,74.96
2018-07-08T08:25:55.345Z,74.87
2018-07-08T08:27:04.265Z,75.06
2018-07-08T08:28:12.908Z,75.2
2018-07-08T08:29:21.558Z,74.87
2018-07-08T08:30:30.208Z,74.81
2018-07-08T08:31:38.853Z,75.96
2018-07-08T08:32:47.833Z,76.06
2018-07-08T08:33:56.798Z,75
2018-07-08T08:35:05.716Z,74.9
2018-07-08T08:36:14.368Z,75.38
2018-07-08T08:37:23.276Z,75
2018-07-08T08:38:31.929Z,74.71
2018-07-08T08:39:40.577Z,73.85
2018-07-08T08:40:49.495Z,73.21
2018-07-08T08:41:58.147Z,72.89
2018-07-08T08:43:06.793Z,72.5
2018-07-08T08:44:15.443Z,72.44
2018-07-08T08:45:24.089Z,72.06
2018-07-08T08:46:32.743Z,71.96
2018-07-08T08:47:41.657Z,70.62
2018-07-08T08:48:50.305Z,70.62
2018-07-08T08:49:58.956Z,70.9
2018-07-08T08:51:07.610Z,68.51
2018-07-08T08:52:16.255Z,69.08
2018-07-08T08:53:24.906Z,69.27
2018-07-08T08:54:33.559Z,69.37
2018-07-08T08:55:42.209Z,67.74
2018-07-08T08:56:50.857Z,67.74
2018-07-08T08:57:59.508Z,68.06
2018-07-08T08:59:08.157Z,68.44
2018-07-08T09:00:17.069Z,68.31
2018-07-08T09:01:25.717Z,68.15
2018-07-08T09:02:34.367Z,68.35
2018-07-08T09:03:43.071Z,69.12
2018-07-08T09:04:51.947Z,69.5
2018-07-08T09:06:00.600Z,67.77
2018-07-08T09:07:09.248Z,68.25
2018-07-08T09:08:17.900Z,67.58
2018-07-08T09:09:26.545Z,67.58
2018-07-08T09:10:35.193Z,65.17
2018-07-08T09:11:43.841Z,64.53
2018-07-08T09:12:52.754Z,65.11
2018-07-08T09:14:01.399Z,64.92
2018-07-08T09:15:10.051Z,63.67
2018-07-08T09:16:18.698Z,64.15
2018-07-08T09:17:27.356Z,62.61
2018-07-08T09:18:36.000Z,62.51
2018-07-08T09:19:44.901Z,63.76
2018-07-08T09:20:53.833Z,62.51
2018-07-08T09:22:02.739Z,61.97
2018-07-08T09:23:11.397Z,61.26
2018-07-08T09:24:20.041Z,61.36
2018-07-08T09:25:28.690Z,61.97
2018-07-08T09:26:37.333Z,62.35
2018-07-08T09:27:45.989Z,60.91
2018-07-08T09:28:54.631Z,60.33
2018-07-08T09:30:03.310Z,61.19
2018-07-08T09:31:12.229Z,61.1
2018-07-08T09:32:20.888Z,61.19
2018-07-08T09:33:29.534Z,61.39
2018-07-08T09:34:38.191Z,61.49
2018-07-08T09:35:46.837Z,61.58
2018-07-08T09:36:55.487Z,61.29
2018-07-08T09:38:04.419Z,59.01
2018-07-08T09:39:13.258Z,59.75
2018-07-08T09:40:21.711Z,59.08
2018-07-08T09:41:30.353Z,58.82
2018-07-08T09:42:39.011Z,60.27
2018-07-08T09:43:47.657Z,60.27
2018-07-08T09:44:56.310Z,60.46
2018-07-08T09:46:04.956Z,61.13
2018-07-08T09:47:13.876Z,58.82
2018-07-08T09:48:22.525Z,57.47
2018-07-08T09:49:31.179Z,56.7
2018-07-08T09:50:39.820Z,56.99
2018-07-08T09:51:48.737Z,56.6
2018-07-08T09:52:57.391Z,55.57
2018-07-08T09:54:06.043Z,54.39
2018-07-08T09:55:14.695Z,55.45
2018-07-08T09:56:23.338Z,55.26
2018-07-08T09:57:31.996Z,55.45
2018-07-08T09:58:40.901Z,55.45
2018-07-08T09:59:49.560Z,55.67
2018-07-08T10:00:58.203Z,56.35
2018-07-08T10:02:06.858Z,56.73
2018-07-08T10:03:15.503Z,55.29
2018-07-08T10:04:24.169Z,55.48
2018-07-08T10:05:32.810Z,55.48
2018-07-08T10:06:41.461Z,55.38
2018-07-08T10:07:50.110Z,55.48
2018-07-08T10:08:58.769Z,55.41
2018-07-08T10:10:07.415Z,55.02
2018-07-08T10:11:16.060Z,54.54
2018-07-08T10:12:24.712Z,53.87
2018-07-08T10:13:33.357Z,53.67
2018-07-08T10:14:42.027Z,53.48
2018-07-08T10:15:50.661Z,53.87
2018-07-08T10:16:59.316Z,54.35
2018-07-08T10:18:07.963Z,54.44
2018-07-08T10:19:16.689Z,55.79
2018-07-08T10:20:25.723Z,54.38
2018-07-08T10:21:34.475Z,54.06
2018-07-08T10:22:43.028Z,54.16
2018-07-08T10:23:51.943Z,55.22
2018-07-08T10:25:00.592Z,53.99
2018-07-08T10:26:09.242Z,53.99
2018-07-08T10:27:17.897Z,53.89
2018-07-08T10:28:26.544Z,53.7
2018-07-08T10:29:35.196Z,52.37
2018-07-08T10:30:43.846Z,53.61
2018-07-08T10:31:52.494Z,52.76
2018-07-08T10:33:01.150Z,51.7
2018-07-08T10:34:09.804Z,50.45
2018-07-08T10:35:18.456Z,50.93
2018-07-08T10:36:27.440Z,50.84
2018-07-08T10:37:36.093Z,50.64
2018-07-08T10:38:45.008Z,51.99
2018-07-08T10:39:53.918Z,52.09
2018-07-08T10:41:02.567Z,51.89
2018-07-08T10:42:11.221Z,51.99
2018-07-08T10:43:19.873Z,51.8
2018-07-08T10:44:28.913Z,51.12
2018-07-08T10:45:37.560Z,52.09
2018-07-08T10:46:46.217Z,51.8
2018-07-08T10:47:54.866Z,50.06
2018-07-08T10:49:03.523Z,51.89
2018-07-08T10:50:12.547Z,52.79
2018-07-08T10:51:21.083Z,50.09
2018-07-08T10:52:30.008Z,51.73
2018-07-08T10:53:38.654Z,49.53
2018-07-08T10:54:47.310Z,49.24
2018-07-08T10:55:55.958Z,48.66
2018-07-08T10:57:04.871Z,49.63
2018-07-08T10:58:13.520Z,49.15
2018-07-08T10:59:22.178Z,48.66
2018-07-08T11:00:30.823Z,49.82
2018-07-08T11:01:39.502Z,50.21
2018-07-08T11:02:48.419Z,50.31
2018-07-08T11:03:57.071Z,49.85
2018-07-08T11:05:05.730Z,48.11
2018-07-08T11:06:14.382Z,49.17
2018-07-08T11:07:23.030Z,49.95
2018-07-08T11:08:32.488Z,49.95
2018-07-08T11:09:41.144Z,47.81
2018-07-08T11:10:50.115Z,47.91
2018-07-08T11:11:59.103Z,48.39
2018-07-08T11:13:07.749Z,47.81
2018-07-08T11:14:16.407Z,49.07
2018-07-08T11:15:25.057Z,47.63
2018-07-08T11:16:33.712Z,47.14
2018-07-08T11:17:42.359Z,47.63
2018-07-08T11:18:51.550Z,46.75
2018-07-08T11:20:00.466Z,46.17
2018-07-08T11:21:09.120Z,45.79
2018-07-08T11:22:17.763Z,45.31
2018-07-08T11:23:26.418Z,46.17
2018-07-08T11:24:35.077Z,45.59
2018-07-08T11:25:43.989Z,44.73
2018-07-08T11:26:52.642Z,45.11
2018-07-08T11:28:01.285Z,45.11
2018-07-08T11:29:10.212Z,45.4
2018-07-08T11:30:18.859Z,46.2
2018-07-08T11:31:27.521Z,45.23
2018-07-08T11:32:36.164Z,44.84
2018-07-08T11:33:44.814Z,45.23
2018-07-08T11:34:53.738Z,45.33
2018-07-08T11:36:02.399Z,46.49
2018-07-08T11:37:11.040Z,46
2018-07-08T11:38:19.960Z,45.23
2018-07-08T11:39:28.880Z,45.23
2018-07-08T11:40:38.066Z,45.23
2018-07-08T11:41:46.717Z,45.33
2018-07-08T11:42:55.482Z,45.42
2018-07-08T11:44:04.012Z,45.14
2018-07-08T11:45:12.666Z,45.81
2018-07-08T11:46:21.321Z,45.83
2018-07-08T11:47:30.233Z,46.22
2018-07-08T11:48:38.890Z,46.8
2018-07-08T11:49:48.117Z,45.64
2018-07-08T11:50:56.745Z,45.54
2018-07-08T11:52:05.920Z,43.51
2018-07-08T11:53:14.841Z,45.16
2018-07-08T11:54:23.483Z,45.16
2018-07-08T11:55:32.504Z,45.45
2018-07-08T11:56:41.157Z,43.13
2018-07-08T11:57:50.068Z,42.86
2018-07-08T11:58:58.709Z,42.57
2018-07-08T12:00:07.367Z,42.86
2018-07-08T12:01:16.022Z,43.82
2018-07-08T12:02:24.685Z,44.02
2018-07-08T12:03:33.339Z,44.31
2018-07-08T12:04:41.983Z,44.02
2018-07-08T12:05:50.637Z,44.5
2018-07-08T12:06:59.286Z,44.7
2018-07-08T12:08:07.944Z,45.37
2018-07-08T12:09:16.584Z,45.76
2018-07-08T12:10:25.507Z,45.18
2018-07-08T12:11:34.154Z,44.89
2018-07-08T12:12:42.815Z,46.34
2018-07-08T12:13:51.459Z,45.57
2018-07-08T12:15:00.118Z,45.47
2018-07-08T12:16:08.772Z,45.66
2018-07-08T12:17:17.679Z,45.57
2018-07-08T12:18:26.331Z,45.28
2018-07-08T12:19:34.987Z,45.18
2018-07-08T12:20:43.904Z,45.28
2018-07-08T12:21:52.559Z,45.47
2018-07-08T12:23:01.205Z,46.25
2018-07-08T12:24:09.857Z,46.44
2018-07-08T12:25:18.504Z,45.78
2018-07-08T12:26:27.163Z,44.13
2018-07-08T12:27:35.847Z,43.34
2018-07-08T12:28:44.463Z,45.28
2018-07-08T12:29:53.111Z,45.76
2018-07-08T12:31:01.772Z,46.63
2018-07-08T12:32:10.678Z,46.75
2018-07-08T12:33:19.336Z,46.75
2018-07-08T12:34:27.983Z,46.94
2018-07-08T12:35:36.647Z,47.5
2018-07-08T12:36:45.335Z,46.84
2018-07-08T12:37:54.508Z,47.43
2018-07-08T12:39:03.421Z,47.81
2018-07-08T12:40:12.336Z,48.39
2018-07-08T12:41:20.998Z,48.01
2018-07-08T12:42:29.907Z,46.87
2018-07-08T12:43:38.562Z,46.19
2018-07-08T12:44:47.298Z,46.29
2018-07-08T12:45:55.871Z,46
2018-07-08T12:47:04.781Z,45.61
2018-07-08T12:48:13.437Z,44.26
2018-07-08T12:49:22.079Z,45.13
2018-07-08T12:50:30.738Z,45.22
2018-07-08T12:51:39.387Z,45.42
2018-07-08T12:52:48.045Z,46.67
2018-07-08T12:53:56.686Z,45.9
2018-07-08T12:55:05.340Z,46.09
2018-07-08T12:56:13.995Z,46.29
2018-07-08T12:57:22.649Z,46.77
2018-07-08T12:58:31.319Z,46.97
2018-07-08T12:59:39.941Z,47.36
2018-07-08T13:00:48.598Z,47.74
2018-07-08T13:01:57.243Z,48.03
2018-07-08T13:03:05.904Z,47.94
2018-07-08T13:04:14.550Z,47.84
2018-07-08T13:05:23.202Z,47.36
2018-07-08T13:06:31.877Z,48.13
2018-07-08T13:07:40.852Z,47.26
2018-07-08T13:08:49.493Z,46.58
2018-07-08T13:09:58.148Z,46.87
2018-07-08T13:11:06.803Z,45.2
2018-07-08T13:12:15.466Z,45.78
2018-07-08T13:13:24.120Z,45.98
2018-07-08T13:14:32.768Z,46.46
2018-07-08T13:15:41.421Z,46.75
2018-07-08T13:16:50.069Z,47.14
2018-07-08T13:17:58.768Z,46.75
2018-07-08T13:19:07.384Z,48.52
2018-07-08T13:20:16.036Z,48.42
2018-07-08T13:21:24.690Z,47.64
2018-07-08T13:22:33.343Z,46.58
2018-07-08T13:23:42.262Z,47.26
2018-07-08T13:24:50.916Z,48.25
2018-07-08T13:25:59.571Z,48.35
2018-07-08T13:27:08.228Z,46.6
2018-07-08T13:28:16.878Z,46.89
2018-07-08T13:29:25.535Z,48.03
2018-07-08T13:30:34.181Z,49.58
2018-07-08T13:31:43.105Z,48.44
2018-07-08T13:32:51.756Z,47.55
2018-07-08T13:34:00.410Z,47.74
2018-07-08T13:35:09.332Z,47.55
2018-07-08T13:36:18.240Z,48.35
2018-07-08T13:37:27.155Z,47.77
2018-07-08T13:38:35.808Z,47.38
2018-07-08T13:39:44.468Z,48.25
2018-07-08T13:40:53.374Z,48.13
2018-07-08T13:42:02.028Z,47.94
2018-07-08T13:43:10.678Z,47.96
2018-07-08T13:44:19.335Z,49.41
2018-07-08T13:45:27.989Z,49.9
2018-07-08T13:46:36.908Z,48.25
2018-07-08T13:47:45.558Z,48.44
2018-07-08T13:48:54.216Z,48.93
2018-07-08T13:50:02.866Z,48.83
2018-07-08T13:51:11.518Z,50.26
2018-07-08T13:52:20.173Z,49.51
2018-07-08T13:53:28.826Z,49.02
2018-07-08T13:54:37.744Z,46.8
2018-07-08T13:55:46.476Z,46.22
2018-07-08T13:56:55.050Z,46.7
2018-07-08T13:58:03.696Z,46.41
2018-07-08T13:59:12.353Z,46.31
2018-07-08T14:00:21.005Z,45.44
2018-07-08T14:01:29.655Z,46
2018-07-08T14:02:38.309Z,46.7
2018-07-08T14:03:46.963Z,46.48
2018-07-08T14:04:55.612Z,47.16
2018-07-08T14:06:04.272Z,46.58
2018-07-08T14:07:13.187Z,47.26
2018-07-08T14:08:22.362Z,46.77
2018-07-08T14:09:31.017Z,46.97
2018-07-08T14:10:39.670Z,47.36
2018-07-08T14:11:48.593Z,47.64
2018-07-08T14:12:57.243Z,48.61
2018-07-08T14:14:05.900Z,48.42
2018-07-08T14:15:14.552Z,48.71
2018-07-08T14:16:23.210Z,48.32
2018-07-08T14:17:31.854Z,49.58
2018-07-08T14:18:40.512Z,48.32
2018-07-08T14:19:49.163Z,48.03
2018-07-08T14:20:58.094Z,48.32
2018-07-08T14:22:06.738Z,49
2018-07-08T14:23:15.395Z,48.52
2018-07-08T14:24:24.044Z,49.68
2018-07-08T14:25:32.730Z,48.52
2018-07-08T14:26:41.698Z,49.29
2018-07-08T14:27:50.607Z,49.49
2018-07-08T14:28:59.259Z,49.68
2018-07-08T14:30:07.914Z,50.26
2018-07-08T14:31:16.633Z,49.87
2018-07-08T14:32:25.229Z,49.1
2018-07-08T14:33:33.886Z,49.39
2018-07-08T14:34:42.572Z,50.04
2018-07-08T14:35:51.875Z,50.43
2018-07-08T14:37:00.523Z,50.43
2018-07-08T14:38:09.180Z,50.82
2018-07-08T14:39:17.821Z,50.33
2018-07-08T14:40:26.483Z,49.49
2018-07-08T14:41:35.134Z,48.01
2018-07-08T14:42:43.788Z,48.88
2018-07-08T14:43:52.434Z,49.27
2018-07-08T14:45:01.088Z,49.49
2018-07-08T14:46:09.778Z,50.52
2018-07-08T14:47:18.782Z,50.84